createdAt,value
2022-07-26T00:01:20.715Z,96649.75
2022-07-26T00:03:49.396Z,96642.19
2022-07-26T00:06:19.086Z,96636.06
2022-07-26T00:08:45.848Z,96634.25
2022-07-26T00:11:12.607Z,96649.47
2022-07-26T00:13:39.387Z,96637.53
2022-07-26T00:16:06.690Z,96641.97
2022-07-26T00:18:33.626Z,96632.69
2022-07-26T00:21:00.205Z,96642.69
2022-07-26T00:23:27.823Z,96637.72
2022-07-26T00:25:54.423Z,96637.84
2022-07-26T00:28:20.920Z,96642.09
2022-07-26T00:30:47.529Z,96654.22
2022-07-26T00:33:14.072Z,96655.00
2022-07-26T00:35:40.766Z,96652.47
2022-07-26T00:38:07.672Z,96652.25
2022-07-26T00:40:35.869Z,96650.19
2022-07-26T00:43:02.485Z,96656.78
2022-07-26T00:45:28.982Z,96653.94
2022-07-26T00:47:55.732Z,96649.09
2022-07-26T00:50:22.333Z,96652.03
2022-07-26T00:52:49.517Z,96657.59
2022-07-26T00:55:17.289Z,96648.03
2022-07-26T00:57:44.546Z,96644.06
2022-07-26T01:00:15.008Z,96642.41
2022-07-26T01:02:42.156Z,96647.41
2022-07-26T01:05:09.097Z,96640.81
2022-07-26T01:07:38.390Z,96637.97
2022-07-26T01:10:12.055Z,96638.47
2022-07-26T01:12:40.054Z,96641.72
2022-07-26T01:15:07.906Z,96644.25
2022-07-26T01:17:36.323Z,96645.66
2022-07-26T01:20:07.543Z,96643.09
2022-07-26T01:22:34.171Z,96631.16
2022-07-26T01:25:00.870Z,96639.16
2022-07-26T01:27:33.555Z,96638.03
2022-07-26T01:30:00.811Z,96623.97
2022-07-26T01:32:27.416Z,96620.69
2022-07-26T01:34:54.167Z,96624.84
2022-07-26T01:37:20.801Z,96622.47
2022-07-26T01:39:47.345Z,96626.81
2022-07-26T01:42:13.893Z,96619.59
2022-07-26T01:44:40.701Z,96619.91
2022-07-26T01:47:07.407Z,96622.16
2022-07-26T01:49:33.952Z,96621.28
2022-07-26T01:52:00.518Z,96624.63
2022-07-26T01:54:27.101Z,96615.75
2022-07-26T01:56:53.701Z,96618.75
2022-07-26T01:59:20.287Z,96615.31
2022-07-26T02:01:46.986Z,96617.38
2022-07-26T02:04:33.665Z,96621.44
2022-07-26T02:07:00.358Z,96618.47
2022-07-26T02:09:33.014Z,96624.78
2022-07-26T02:12:06.316Z,96620.84
2022-07-26T02:14:32.857Z,96624.00
2022-07-26T02:17:00.258Z,96624.47
2022-07-26T02:19:28.819Z,96625.16
2022-07-26T02:21:55.717Z,96623.88
2022-07-26T02:24:22.559Z,96620.50
2022-07-26T02:26:49.110Z,96619.00
2022-07-26T02:29:16.047Z,96621.97
2022-07-26T02:31:42.810Z,96625.72
2022-07-26T02:34:15.189Z,96625.22
2022-07-26T02:36:41.773Z,96624.53
2022-07-26T02:39:08.429Z,96631.22
2022-07-26T02:41:34.900Z,96623.03
2022-07-26T02:44:02.853Z,96620.34
2022-07-26T02:46:29.511Z,96611.00
2022-07-26T02:48:56.108Z,96618.19
2022-07-26T02:51:22.725Z,96617.81
2022-07-26T02:53:49.318Z,96627.56
2022-07-26T02:56:15.779Z,96625.44
2022-07-26T02:58:42.399Z,96629.03
2022-07-26T03:01:08.998Z,96622.94
2022-07-26T03:03:36.404Z,96613.00
2022-07-26T03:06:03.553Z,96622.13
2022-07-26T03:08:30.098Z,96632.78
2022-07-26T03:10:56.775Z,96635.44
2022-07-26T03:13:23.462Z,96640.84
2022-07-26T03:15:50.101Z,96639.47
2022-07-26T03:18:16.736Z,96635.16
2022-07-26T03:20:43.617Z,96643.50
2022-07-26T03:23:10.152Z,96633.75
2022-07-26T03:25:38.242Z,96632.59
2022-07-26T03:28:04.934Z,96634.66
2022-07-26T03:30:31.531Z,96625.41
2022-07-26T03:32:58.019Z,96638.47
2022-07-26T03:35:25.445Z,96645.75
2022-07-26T03:37:52.541Z,96651.28
2022-07-26T03:40:20.090Z,96653.66
2022-07-26T03:42:47.848Z,96650.59
2022-07-26T03:45:15.542Z,96649.91
2022-07-26T03:47:42.446Z,96656.63
2022-07-26T03:50:10.959Z,96652.53
2022-07-26T03:52:37.835Z,96659.72
2022-07-26T03:55:25.305Z,96652.00
2022-07-26T03:57:52.403Z,96657.06
2022-07-26T04:00:19.029Z,96654.53
2022-07-26T04:02:46.355Z,96657.06
2022-07-26T04:05:12.978Z,96670.63
2022-07-26T04:07:43.318Z,96667.38
2022-07-26T04:10:20.275Z,96668.13
2022-07-26T04:12:46.816Z,96665.13
2022-07-26T04:15:13.374Z,96673.59
2022-07-26T04:17:41.080Z,96669.13
2022-07-26T04:20:09.648Z,96672.75
2022-07-26T04:22:37.839Z,96672.25
2022-07-26T04:25:06.159Z,96675.50
2022-07-26T04:27:33.192Z,96661.63
2022-07-26T04:29:59.936Z,96672.47
2022-07-26T04:32:26.633Z,96674.94
2022-07-26T04:34:53.354Z,96670.91
2022-07-26T04:37:19.995Z,96677.00
2022-07-26T04:39:48.438Z,96667.75
2022-07-26T04:42:18.337Z,96675.72
2022-07-26T04:44:44.813Z,96675.41
2022-07-26T04:47:11.445Z,96680.47
2022-07-26T04:49:37.893Z,96687.00
2022-07-26T04:52:04.634Z,96681.09
2022-07-26T04:54:31.185Z,96682.38
2022-07-26T04:56:57.742Z,96675.41
2022-07-26T04:59:24.209Z,96683.28
2022-07-26T05:01:50.790Z,96686.31
2022-07-26T05:04:17.304Z,96692.78
2022-07-26T05:06:43.826Z,96684.72
2022-07-26T05:09:10.828Z,96685.38
2022-07-26T05:11:37.580Z,96674.59
2022-07-26T05:14:04.492Z,96683.75
2022-07-26T05:16:31.470Z,96682.72
2022-07-26T05:18:58.078Z,96679.09
2022-07-26T05:21:24.530Z,96684.19
2022-07-26T05:23:51.043Z,96674.13
2022-07-26T05:26:17.558Z,96676.13
2022-07-26T05:28:44.014Z,96676.31
2022-07-26T05:31:10.694Z,96684.31
2022-07-26T05:33:37.492Z,96683.72
2022-07-26T05:36:04.366Z,96671.81
2022-07-26T05:38:30.907Z,96676.91
2022-07-26T05:40:57.444Z,96676.31
2022-07-26T05:43:23.897Z,96668.22
2022-07-26T05:45:50.464Z,96663.28
2022-07-26T05:48:16.893Z,96679.16
2022-07-26T05:50:44.252Z,96688.16
2022-07-26T05:53:10.861Z,96688.25
2022-07-26T05:55:37.291Z,96688.56
2022-07-26T05:58:03.900Z,96687.97
2022-07-26T06:00:30.488Z,96687.06
2022-07-26T06:02:57.998Z,96691.72
2022-07-26T06:05:24.726Z,96684.72
2022-07-26T06:07:51.309Z,96702.28
2022-07-26T06:10:17.781Z,96698.72
2022-07-26T06:12:44.781Z,96694.47
2022-07-26T06:15:15.254Z,96696.50
2022-07-26T06:17:42.682Z,96698.41
2022-07-26T06:20:09.964Z,96703.94
2022-07-26T06:22:36.553Z,96703.66
2022-07-26T06:25:03.586Z,96711.06
2022-07-26T06:27:32.127Z,96706.69
2022-07-26T06:29:58.660Z,96708.59
2022-07-26T06:32:25.101Z,96723.03
2022-07-26T06:34:51.675Z,96706.47
2022-07-26T06:37:18.154Z,96704.78
2022-07-26T06:39:44.694Z,96706.88
2022-07-26T06:42:11.175Z,96708.03
2022-07-26T06:44:39.800Z,96713.78
2022-07-26T06:47:06.546Z,96711.38
2022-07-26T06:49:33.212Z,96711.25
2022-07-26T06:52:00.140Z,96702.66
2022-07-26T06:54:27.635Z,96713.59
2022-07-26T06:56:54.224Z,96710.72
2022-07-26T06:59:20.827Z,96708.59
2022-07-26T07:01:55.401Z,96698.97
2022-07-26T07:04:29.657Z,96710.63
2022-07-26T07:06:57.538Z,96699.72
2022-07-26T07:09:24.577Z,96700.66
2022-07-26T07:11:56.194Z,96706.59
2022-07-26T07:14:26.986Z,96696.22
2022-07-26T07:16:53.589Z,96705.56
2022-07-26T07:19:20.252Z,96704.38
2022-07-26T07:21:46.903Z,96709.44
2022-07-26T07:24:13.619Z,96706.81
2022-07-26T07:26:41.071Z,96710.31
2022-07-26T07:29:10.157Z,96702.00
2022-07-26T07:31:48.125Z,96702.66
2022-07-26T07:34:16.510Z,96699.66
2022-07-26T07:36:43.209Z,96699.63
2022-07-26T07:39:15.625Z,96703.66
2022-07-26T07:41:48.661Z,96705.81
2022-07-26T07:44:15.820Z,96693.28
2022-07-26T07:46:42.709Z,96700.03
2022-07-26T07:49:10.839Z,96697.59
2022-07-26T07:51:38.062Z,96692.00
2022-07-26T07:54:05.786Z,96689.72
2022-07-26T07:56:33.423Z,96694.03
2022-07-26T07:59:00.327Z,96693.59
2022-07-26T08:01:39.643Z,96684.78
2022-07-26T08:04:07.946Z,96686.91
2022-07-26T08:06:34.756Z,96689.13
2022-07-26T08:09:01.553Z,96685.66
2022-07-26T08:11:30.688Z,96682.59
2022-07-26T08:14:00.444Z,96684.81
2022-07-26T08:16:27.319Z,96689.78
2022-07-26T08:18:57.173Z,96684.75
2022-07-26T08:21:35.464Z,96691.16
2022-07-26T08:24:02.707Z,96693.88
2022-07-26T08:26:29.473Z,96694.28
2022-07-26T08:28:59.652Z,96689.81
2022-07-26T08:31:28.324Z,96689.84
2022-07-26T08:33:55.236Z,96697.81
2022-07-26T08:36:22.013Z,96695.22
2022-07-26T08:38:48.706Z,96687.44
2022-07-26T08:41:17.562Z,96689.84
2022-07-26T08:43:51.706Z,96688.16
2022-07-26T08:46:28.002Z,96680.59
2022-07-26T08:48:56.557Z,96684.72
2022-07-26T08:51:25.098Z,96681.66
2022-07-26T08:53:58.036Z,96685.94
2022-07-26T08:56:30.638Z,96686.13
2022-07-26T08:58:57.386Z,96686.81
2022-07-26T09:01:24.085Z,96682.25
2022-07-26T09:03:50.945Z,96680.78
2022-07-26T09:06:22.609Z,96684.19
2022-07-26T09:08:53.405Z,96679.63
2022-07-26T09:11:33.366Z,96670.44
2022-07-26T09:14:02.517Z,96693.03
2022-07-26T09:16:30.073Z,96684.13
2022-07-26T09:19:22.189Z,96688.56
2022-07-26T09:21:49.264Z,96685.69
2022-07-26T09:24:35.798Z,96695.16
2022-07-26T09:27:04.981Z,96689.28
2022-07-26T09:29:42.753Z,96690.25
2022-07-26T09:32:11.156Z,96686.13
2022-07-26T09:34:48.081Z,96683.91
2022-07-26T09:37:32.255Z,96672.84
2022-07-26T09:40:01.409Z,96686.50
2022-07-26T09:42:29.573Z,96678.75
2022-07-26T09:44:58.234Z,96676.31
2022-07-26T09:47:39.667Z,96686.25
2022-07-26T09:50:21.030Z,96675.50
2022-07-26T09:53:11.077Z,96676.53
2022-07-26T09:55:55.837Z,96679.91
2022-07-26T09:58:24.473Z,96682.75
2022-07-26T10:00:51.232Z,96683.28
2022-07-26T10:03:17.965Z,96674.22
2022-07-26T10:05:44.631Z,96682.03
2022-07-26T10:08:12.737Z,96685.75
2022-07-26T10:10:50.965Z,96682.22
2022-07-26T10:13:18.003Z,96689.25
2022-07-26T10:15:47.635Z,96688.19
2022-07-26T10:18:36.705Z,96693.84
2022-07-26T10:21:16.675Z,96688.16
2022-07-26T10:23:45.840Z,96691.28
2022-07-26T10:26:32.238Z,96700.25
2022-07-26T10:29:16.954Z,96692.88
2022-07-26T10:31:47.425Z,96682.13
2022-07-26T10:34:39.490Z,96676.03
2022-07-26T10:37:20.693Z,96670.16
2022-07-26T10:39:47.253Z,96662.13
2022-07-26T10:42:13.767Z,96673.09
2022-07-26T10:44:42.474Z,96660.88
2022-07-26T10:47:08.932Z,96658.06
2022-07-26T10:49:38.374Z,96661.59
2022-07-26T10:52:23.147Z,96665.50
2022-07-26T10:54:58.970Z,96665.22
2022-07-26T10:57:30.363Z,96650.50
2022-07-26T10:59:57.905Z,96664.69
2022-07-26T11:02:27.921Z,96655.69
2022-07-26T11:05:14.978Z,96665.00
2022-07-26T11:08:11.081Z,96663.50
2022-07-26T11:10:37.503Z,96665.19
2022-07-26T11:13:18.754Z,96671.97
2022-07-26T11:15:50.901Z,96664.56
2022-07-26T11:18:27.744Z,96661.09
2022-07-26T11:20:55.997Z,96673.28
2022-07-26T11:23:28.302Z,96682.50
2022-07-26T11:26:19.494Z,96667.53
2022-07-26T11:28:50.646Z,96670.66
2022-07-26T11:31:20.046Z,96669.13
2022-07-26T11:33:49.089Z,96653.41
2022-07-26T11:36:15.606Z,96676.28
2022-07-26T11:38:48.324Z,96671.56
2022-07-26T11:41:18.839Z,96668.16
2022-07-26T11:43:45.362Z,96669.00
2022-07-26T11:46:12.114Z,96664.72
2022-07-26T11:48:45.354Z,96667.09
2022-07-26T11:51:13.483Z,96666.28
2022-07-26T11:53:40.160Z,96662.75
2022-07-26T11:56:14.887Z,96662.19
2022-07-26T11:58:42.733Z,96652.13
2022-07-26T12:01:09.949Z,96660.31
2022-07-26T12:03:41.035Z,96670.47
2022-07-26T12:06:10.465Z,96667.34
2022-07-26T12:08:46.372Z,96670.97
2022-07-26T12:11:15.494Z,96656.06
2022-07-26T12:13:55.322Z,96649.78
2022-07-26T12:16:45.633Z,96666.41
2022-07-26T12:19:18.397Z,96658.91
2022-07-26T12:21:51.215Z,96655.22
2022-07-26T12:24:43.518Z,96654.97
2022-07-26T12:27:11.809Z,96662.81
2022-07-26T12:29:40.842Z,96648.63
2022-07-26T12:32:12.711Z,96655.34
2022-07-26T12:34:41.648Z,96656.63
2022-07-26T12:37:17.479Z,96646.22
2022-07-26T12:40:18.832Z,96645.31
2022-07-26T12:42:51.046Z,96636.94
2022-07-26T12:45:24.177Z,96636.94
2022-07-26T12:47:52.771Z,96633.84
2022-07-26T12:50:21.920Z,96641.22
2022-07-26T12:52:48.909Z,96633.84
2022-07-26T12:55:18.922Z,96632.47
2022-07-26T12:57:47.586Z,96645.72
2022-07-26T13:00:16.541Z,96637.84
2022-07-26T13:02:44.072Z,96644.09
2022-07-26T13:05:11.367Z,96635.97
2022-07-26T13:07:38.832Z,96642.53
2022-07-26T13:10:32.537Z,96642.16
2022-07-26T13:12:53.658Z,96646.03
2022-07-26T13:15:20.225Z,96633.38
2022-07-26T13:17:46.726Z,96638.78
2022-07-26T13:20:13.290Z,96634.63
2022-07-26T13:22:42.639Z,96631.28
2022-07-26T13:25:09.425Z,96635.16
2022-07-26T13:27:41.469Z,96647.75
2022-07-26T13:30:11.567Z,96630.38
2022-07-26T13:32:38.099Z,96637.44
2022-07-26T13:35:04.872Z,96638.22
2022-07-26T13:37:31.984Z,96631.69
2022-07-26T13:39:58.557Z,96637.94
2022-07-26T13:42:25.043Z,96638.97
2022-07-26T13:44:51.540Z,96637.28
2022-07-26T13:47:18.003Z,96640.13
2022-07-26T13:49:44.518Z,96638.44
2022-07-26T13:52:15.782Z,96621.06
2022-07-26T13:54:43.489Z,96627.25
2022-07-26T13:57:10.107Z,96628.03
2022-07-26T13:59:36.644Z,96630.06
2022-07-26T14:02:04.758Z,96636.16
2022-07-26T14:04:31.433Z,96642.94
2022-07-26T14:06:57.991Z,96647.16
2022-07-26T14:09:24.811Z,96649.50
2022-07-26T14:11:52.407Z,96637.97
2022-07-26T14:14:19.024Z,96635.28
2022-07-26T14:16:49.344Z,96637.84
2022-07-26T14:19:16.521Z,96632.75
2022-07-26T14:21:48.855Z,96643.00
2022-07-26T14:24:26.474Z,96640.69
2022-07-26T14:26:56.846Z,96644.38
2022-07-26T14:29:26.010Z,96650.72
2022-07-26T14:31:52.801Z,96644.94
2022-07-26T14:34:19.495Z,96649.56
2022-07-26T14:36:45.985Z,96644.53
2022-07-26T14:39:12.652Z,96646.22
2022-07-26T14:41:39.329Z,96649.25
2022-07-26T14:44:06.490Z,96646.81
2022-07-26T14:46:33.141Z,96640.13
2022-07-26T14:48:59.768Z,96647.09
2022-07-26T14:51:26.626Z,96648.00
2022-07-26T14:53:53.199Z,96653.28
2022-07-26T14:56:19.824Z,96646.84
2022-07-26T14:58:46.325Z,96646.09
2022-07-26T15:01:13.013Z,96647.06
2022-07-26T15:03:39.698Z,96649.56
2022-07-26T15:06:06.235Z,96635.97
2022-07-26T15:08:32.754Z,96627.50
2022-07-26T15:10:59.382Z,96636.97
2022-07-26T15:13:25.899Z,96631.59
2022-07-26T15:15:52.609Z,96652.22
2022-07-26T15:18:19.157Z,96642.19
2022-07-26T15:20:45.633Z,96635.03
2022-07-26T15:23:15.100Z,96644.38
2022-07-26T15:25:42.094Z,96639.63
2022-07-26T15:28:08.713Z,96639.53
2022-07-26T15:30:35.786Z,96639.78
2022-07-26T15:33:02.687Z,96641.78
2022-07-26T15:35:29.807Z,96641.81
2022-07-26T15:37:56.869Z,96638.41
2022-07-26T15:40:23.531Z,96630.44
2022-07-26T15:42:52.154Z,96629.75
2022-07-26T15:45:20.717Z,96635.75
2022-07-26T15:48:03.328Z,96642.44
2022-07-26T15:50:34.780Z,96634.31
2022-07-26T15:53:01.381Z,96637.03
2022-07-26T15:55:28.158Z,96639.06
2022-07-26T15:57:54.799Z,96646.75
2022-07-26T16:00:21.361Z,96638.41
2022-07-26T16:02:47.948Z,96637.44
2022-07-26T16:05:14.639Z,96636.53
2022-07-26T16:07:41.958Z,96647.31
2022-07-26T16:10:10.546Z,96645.50
2022-07-26T16:12:37.149Z,96640.03
2022-07-26T16:15:07.959Z,96627.22
2022-07-26T16:17:34.624Z,96631.16
2022-07-26T16:20:02.260Z,96634.47
2022-07-26T16:22:28.909Z,96613.91
2022-07-26T16:24:55.443Z,96627.34
2022-07-26T16:27:22.016Z,96633.41
2022-07-26T16:29:52.129Z,96622.63
2022-07-26T16:32:21.001Z,96624.41
2022-07-26T16:34:47.521Z,96620.91
2022-07-26T16:37:14.198Z,96632.91
2022-07-26T16:39:40.719Z,96629.28
2022-07-26T16:42:07.661Z,96631.41
2022-07-26T16:44:36.011Z,96626.03
2022-07-26T16:47:03.763Z,96626.28
2022-07-26T16:49:30.597Z,96625.50
2022-07-26T16:51:57.645Z,96625.03
2022-07-26T16:54:24.625Z,96619.53
2022-07-26T16:56:51.118Z,96631.50
2022-07-26T16:59:18.149Z,96630.28
2022-07-26T17:01:44.994Z,96627.25
2022-07-26T17:04:11.544Z,96618.13
2022-07-26T17:06:38.130Z,96616.81
2022-07-26T17:09:04.674Z,96634.38
2022-07-26T17:11:31.229Z,96617.81
2022-07-26T17:13:58.085Z,96626.72
2022-07-26T17:16:25.032Z,96631.84
2022-07-26T17:18:53.344Z,96624.88
2022-07-26T17:21:20.425Z,96627.06
2022-07-26T17:23:47.106Z,96627.84
2022-07-26T17:26:13.939Z,96623.13
2022-07-26T17:28:40.920Z,96634.22
2022-07-26T17:31:07.480Z,96626.09
2022-07-26T17:33:34.116Z,96622.69
2022-07-26T17:36:03.319Z,96626.53
2022-07-26T17:38:33.445Z,96627.09
2022-07-26T17:41:00.747Z,96626.94
2022-07-26T17:43:36.704Z,96632.78
2022-07-26T17:46:04.002Z,96633.75
2022-07-26T17:48:30.584Z,96629.25
2022-07-26T17:50:57.161Z,96632.22
2022-07-26T17:53:34.610Z,96640.94
2022-07-26T17:56:02.289Z,96637.59
2022-07-26T17:58:28.881Z,96638.31
2022-07-26T18:00:55.454Z,96634.50
2022-07-26T18:03:23.125Z,96640.03
2022-07-26T18:05:50.534Z,96633.69
2022-07-26T18:08:17.514Z,96640.75
2022-07-26T18:10:48.983Z,96631.94
2022-07-26T18:13:17.744Z,96639.34
2022-07-26T18:15:44.275Z,96641.88
2022-07-26T18:18:10.979Z,96645.13
2022-07-26T18:20:37.598Z,96650.75
2022-07-26T18:23:03.977Z,96651.78
2022-07-26T18:25:30.538Z,96645.00
2022-07-26T18:27:56.987Z,96652.44
2022-07-26T18:30:23.643Z,96657.53
2022-07-26T18:32:50.259Z,96646.34
2022-07-26T18:35:16.808Z,96651.59
2022-07-26T18:37:43.282Z,96660.09
2022-07-26T18:40:10.234Z,96658.53
2022-07-26T18:42:36.768Z,96659.00
2022-07-26T18:45:03.525Z,96654.63
2022-07-26T18:47:30.071Z,96659.97
2022-07-26T18:49:56.586Z,96658.41
2022-07-26T18:52:31.584Z,96660.63
2022-07-26T18:54:59.867Z,96654.63
2022-07-26T18:57:26.396Z,96651.34
2022-07-26T18:59:52.813Z,96665.66
2022-07-26T19:02:19.432Z,96661.69
2022-07-26T19:04:46.059Z,96670.47
2022-07-26T19:07:12.747Z,96679.28
2022-07-26T19:09:39.396Z,96688.25
2022-07-26T19:12:06.042Z,96679.25
2022-07-26T19:14:32.703Z,96684.47
2022-07-26T19:16:59.337Z,96688.03
2022-07-26T19:19:25.936Z,96692.28
2022-07-26T19:21:52.599Z,96691.78
2022-07-26T19:24:19.221Z,96686.88
2022-07-26T19:26:45.739Z,96691.69
2022-07-26T19:29:12.836Z,96700.22
2022-07-26T19:31:41.938Z,96710.75
2022-07-26T19:34:08.663Z,96705.88
2022-07-26T19:36:35.408Z,96718.63
2022-07-26T19:39:02.268Z,96710.91
2022-07-26T19:41:28.937Z,96712.25
2022-07-26T19:43:55.546Z,96708.72
2022-07-26T19:46:22.305Z,96713.50
2022-07-26T19:48:49.086Z,96715.16
2022-07-26T19:51:15.804Z,96714.47
2022-07-26T19:53:44.664Z,96712.41
2022-07-26T19:56:11.525Z,96717.81
2022-07-26T19:58:38.135Z,96722.34
2022-07-26T20:01:05.026Z,96716.19
2022-07-26T20:03:32.211Z,96725.56
2022-07-26T20:05:59.848Z,96717.31
2022-07-26T20:08:26.484Z,96723.41
2022-07-26T20:10:53.045Z,96722.53
2022-07-26T20:13:19.706Z,96726.78
2022-07-26T20:15:49.016Z,96723.13
2022-07-26T20:18:18.286Z,96728.63
2022-07-26T20:20:45.008Z,96724.03
2022-07-26T20:23:11.838Z,96724.59
2022-07-26T20:25:38.495Z,96727.84
2022-07-26T20:28:05.224Z,96731.19
2022-07-26T20:30:31.961Z,96739.09
2022-07-26T20:32:58.656Z,96728.13
2022-07-26T20:35:25.177Z,96745.59
2022-07-26T20:37:51.812Z,96744.22
2022-07-26T20:40:18.749Z,96740.84
2022-07-26T20:42:45.432Z,96737.44
2022-07-26T20:45:14.862Z,96740.97
2022-07-26T20:47:41.697Z,96748.25
2022-07-26T20:50:09.697Z,96739.75
2022-07-26T20:52:36.576Z,96738.53
2022-07-26T20:55:03.827Z,96740.31
2022-07-26T20:57:30.895Z,96730.13
2022-07-26T20:59:57.584Z,96741.56
2022-07-26T21:02:24.324Z,96739.88
2022-07-26T21:04:51.216Z,96741.84
2022-07-26T21:07:18.308Z,96742.78
2022-07-26T21:09:45.023Z,96744.28
2022-07-26T21:12:11.770Z,96743.91
2022-07-26T21:14:38.516Z,96744.84
2022-07-26T21:17:10.954Z,96751.84
2022-07-26T21:19:38.315Z,96741.41
2022-07-26T21:22:05.170Z,96749.41
2022-07-26T21:24:31.837Z,96751.69
2022-07-26T21:26:58.561Z,96757.56
2022-07-26T21:29:25.159Z,96760.31
2022-07-26T21:31:51.878Z,96755.88
2022-07-26T21:34:19.073Z,96760.69
2022-07-26T21:36:46.355Z,96761.09
2022-07-26T21:39:13.921Z,96761.81
2022-07-26T21:41:40.989Z,96764.03
2022-07-26T21:44:07.711Z,96762.16
2022-07-26T21:46:34.506Z,96758.53
2022-07-26T21:49:01.291Z,96756.19
2022-07-26T21:51:27.986Z,96755.50
2022-07-26T21:53:54.574Z,96753.59
2022-07-26T21:56:21.888Z,96759.44
2022-07-26T21:58:48.744Z,96761.00
2022-07-26T22:03:11.748Z,96762.44
2022-07-26T22:05:38.434Z,96763.22
2022-07-26T22:08:06.245Z,96757.41
2022-07-26T22:10:33.851Z,96759.34
2022-07-26T22:13:00.521Z,96752.94
2022-07-26T22:15:27.003Z,96755.16
2022-07-26T22:17:55.174Z,96765.28
2022-07-26T22:20:22.660Z,96764.53
2022-07-26T22:22:49.226Z,96751.31
2022-07-26T22:25:15.774Z,96758.72
2022-07-26T22:27:42.207Z,96760.91
2022-07-26T22:30:09.248Z,96753.47
2022-07-26T22:32:35.836Z,96755.81
2022-07-26T22:35:02.303Z,96762.94
2022-07-26T22:37:28.845Z,96766.16
2022-07-26T22:39:55.366Z,96761.72
2022-07-26T22:42:21.886Z,96766.78
2022-07-26T22:44:48.386Z,96759.22
2022-07-26T22:47:14.975Z,96759.22
2022-07-26T22:49:41.543Z,96751.19
2022-07-26T22:52:08.060Z,96759.38
2022-07-26T22:54:34.714Z,96756.25
2022-07-26T22:57:01.422Z,96752.53
2022-07-26T22:59:27.899Z,96745.94
2022-07-26T23:01:54.490Z,96743.59
2022-07-26T23:04:21.112Z,96745.50
2022-07-26T23:06:48.047Z,96743.66
2022-07-26T23:09:14.847Z,96741.84
2022-07-26T23:11:41.479Z,96741.38
2022-07-26T23:14:08.022Z,96745.13
2022-07-26T23:16:34.626Z,96749.19
2022-07-26T23:19:01.176Z,96742.28
2022-07-26T23:21:27.795Z,96745.97
2022-07-26T23:23:54.662Z,96751.38
2022-07-26T23:26:21.148Z,96752.72
2022-07-26T23:28:47.592Z,96752.72
2022-07-26T23:31:14.366Z,96745.50
2022-07-26T23:33:52.016Z,96752.16
2022-07-26T23:36:21.574Z,96749.00
2022-07-26T23:38:48.010Z,96740.78
2022-07-26T23:41:14.615Z,96743.69
2022-07-26T23:43:41.096Z,96754.56
2022-07-26T23:46:07.543Z,96747.75
2022-07-26T23:48:34.061Z,96738.00
2022-07-26T23:51:00.492Z,96737.59
2022-07-26T23:53:27.361Z,96741.28
2022-07-26T23:55:54.094Z,96737.03
2022-07-26T23:58:20.746Z,96735.50
